createdAt,value
2023-05-05T00:01:46.789Z,100.00
2023-05-05T00:04:49.860Z,100.00
2023-05-05T00:07:54.394Z,100.00
2023-05-05T00:10:57.732Z,100.00
2023-05-05T00:14:01.089Z,100.00
2023-05-05T00:17:04.388Z,100.00
2023-05-05T00:20:12.492Z,100.00
2023-05-05T00:23:17.183Z,100.00
2023-05-05T00:26:21.230Z,100.00
2023-05-05T00:29:26.815Z,100.00
2023-05-05T00:32:29.931Z,100.00
2023-05-05T00:35:33.135Z,100.00
2023-05-05T00:38:38.077Z,100.00
2023-05-05T00:41:42.460Z,100.00
2023-05-05T00:44:45.998Z,100.00
2023-05-05T00:47:51.201Z,100.00
2023-05-05T00:50:54.581Z,100.00
2023-05-05T00:53:59.381Z,100.00
2023-05-05T00:57:03.095Z,100.00
2023-05-05T01:00:09.830Z,100.00
2023-05-05T01:03:18.487Z,100.00
2023-05-05T01:06:46.149Z,100.00
2023-05-05T01:10:11.002Z,100.00
2023-05-05T01:13:28.802Z,100.00
2023-05-05T01:16:35.371Z,100.00
2023-05-05T01:20:03.727Z,100.00
2023-05-05T01:23:09.535Z,100.00
2023-05-05T01:26:25.736Z,100.00
2023-05-05T01:29:41.673Z,100.00
2023-05-05T01:32:51.315Z,100.00
2023-05-05T01:35:59.055Z,100.00
2023-05-05T01:39:04.188Z,100.00
2023-05-05T01:42:13.769Z,100.00
2023-05-05T01:45:21.144Z,100.00
2023-05-05T01:48:26.884Z,100.00
2023-05-05T01:51:31.031Z,100.00
2023-05-05T01:54:35.540Z,100.00
2023-05-05T01:57:42.449Z,100.00
2023-05-05T02:00:46.672Z,100.00
2023-05-05T02:03:52.851Z,100.00
2023-05-05T02:06:58.730Z,100.00
2023-05-05T02:10:03.562Z,100.00
2023-05-05T02:13:07.143Z,100.00
2023-05-05T02:16:11.581Z,100.00
2023-05-05T02:19:17.068Z,100.00
2023-05-05T02:22:20.316Z,100.00
2023-05-05T02:25:27.264Z,100.00
2023-05-05T02:28:36.337Z,100.00
2023-05-05T02:31:43.427Z,100.00
2023-05-05T02:34:51.392Z,100.00
2023-05-05T02:38:02.516Z,100.00
2023-05-05T02:41:14.576Z,100.00
2023-05-05T02:44:21.181Z,100.00
2023-05-05T02:47:30.186Z,100.00
2023-05-05T02:50:35.035Z,100.00
2023-05-05T02:53:48.977Z,100.00
2023-05-05T02:56:54.327Z,100.00
2023-05-05T03:00:05.993Z,100.00
2023-05-05T03:03:17.744Z,100.00
2023-05-05T03:06:28.343Z,100.00
2023-05-05T03:09:37.811Z,100.00
2023-05-05T03:12:47.022Z,100.00
2023-05-05T03:15:59.594Z,100.00
2023-05-05T03:19:04.507Z,100.00
2023-05-05T03:22:10.354Z,100.00
2023-05-05T03:25:17.638Z,100.00
2023-05-05T03:28:21.191Z,100.00
2023-05-05T03:34:45.186Z,100.00
2023-05-05T03:37:48.691Z,100.00
2023-05-05T03:40:53.889Z,100.00
2023-05-05T03:44:00.026Z,100.00
2023-05-05T03:47:03.742Z,100.00
2023-05-05T03:50:13.093Z,100.00
2023-05-05T03:53:16.893Z,100.00
2023-05-05T03:56:20.558Z,100.00
2023-05-05T03:59:23.666Z,100.00
2023-05-05T04:02:27.182Z,100.00
2023-05-05T04:05:31.775Z,100.00
2023-05-05T04:08:35.303Z,100.00
2023-05-05T04:11:38.634Z,100.00
2023-05-05T04:14:41.924Z,100.00
2023-05-05T04:17:47.658Z,100.00
2023-05-05T04:20:52.516Z,100.00
2023-05-05T04:23:56.495Z,100.00
2023-05-05T04:26:59.719Z,100.00
2023-05-05T04:30:05.747Z,100.00
2023-05-05T04:33:10.762Z,100.00
2023-05-05T04:36:15.405Z,100.00
2023-05-05T04:39:18.988Z,100.00
2023-05-05T04:42:22.343Z,100.00
2023-05-05T04:45:26.228Z,100.00
2023-05-05T04:48:29.797Z,100.00
2023-05-05T04:51:34.360Z,100.00
2023-05-05T04:54:37.714Z,100.00
2023-05-05T04:57:40.922Z,100.00
2023-05-05T05:00:44.525Z,100.00
2023-05-05T05:03:49.756Z,100.00
2023-05-05T05:06:55.734Z,100.00
2023-05-05T05:10:00.602Z,100.00
2023-05-05T05:13:03.904Z,100.00
2023-05-05T05:16:07.933Z,100.00
2023-05-05T05:19:11.715Z,100.00
2023-05-05T05:22:16.332Z,100.00
2023-05-05T05:25:20.338Z,100.00
2023-05-05T05:28:24.936Z,100.00
2023-05-05T05:31:34.287Z,100.00
2023-05-05T05:34:37.773Z,100.00
2023-05-05T05:37:44.108Z,100.00
2023-05-05T05:40:49.438Z,100.00
2023-05-05T05:43:53.117Z,100.00
2023-05-05T05:46:56.469Z,100.00
2023-05-05T05:49:59.936Z,98.64
2023-05-05T05:53:05.371Z,97.89
2023-05-05T05:56:09.832Z,100.00
2023-05-05T05:59:13.607Z,96.79
2023-05-05T06:02:19.114Z,94.15
2023-05-05T06:05:23.121Z,91.06
2023-05-05T06:08:29.136Z,92.39
2023-05-05T06:11:34.925Z,91.96
2023-05-05T06:14:38.059Z,92.83
2023-05-05T06:17:41.504Z,91.68
2023-05-05T06:24:31.952Z,91.06
2023-05-05T06:28:33.507Z,84.58
2023-05-05T06:31:42.607Z,85.34
2023-05-05T06:35:33.644Z,84.74
2023-05-05T06:39:06.580Z,83.79
2023-05-05T06:42:57.996Z,87.62
2023-05-05T06:46:59.444Z,84.94
2023-05-05T06:50:14.454Z,85.83
2023-05-05T06:54:31.626Z,83.59
2023-05-05T06:57:50.417Z,83.49
2023-05-05T07:05:55.573Z,87.11
2023-05-05T07:09:55.138Z,85.89
2023-05-05T07:13:26.650Z,85.82
2023-05-05T07:16:38.941Z,86.44
2023-05-05T07:19:58.780Z,85.75
2023-05-05T07:23:48.527Z,85.21
2023-05-05T07:27:31.738Z,81.59
2023-05-05T07:30:58.821Z,85.62
2023-05-05T07:34:22.465Z,84.01
2023-05-05T07:37:42.935Z,80.12
2023-05-05T07:41:02.193Z,82.18
2023-05-05T07:45:19.014Z,81.86
2023-05-05T07:49:31.082Z,84.63
2023-05-05T08:00:41.074Z,86.84
2023-05-05T08:03:53.831Z,81.33
2023-05-05T08:08:06.667Z,88.28
2023-05-05T08:11:29.786Z,85.79
2023-05-05T08:18:47.454Z,83.58
2023-05-05T08:26:02.138Z,85.71
2023-05-05T08:30:06.083Z,88.16
2023-05-05T08:34:04.395Z,90.56
2023-05-05T08:37:25.633Z,87.97
2023-05-05T08:40:56.008Z,86.46
2023-05-05T08:45:17.469Z,89.30
2023-05-05T09:05:37.628Z,90.99
2023-05-05T09:09:06.245Z,88.43
2023-05-05T09:13:12.379Z,90.85
2023-05-05T09:20:22.969Z,90.76
2023-05-05T09:23:40.921Z,88.33
2023-05-05T09:27:23.358Z,88.92
2023-05-05T09:35:40.273Z,89.49
2023-05-05T09:46:58.190Z,88.90
2023-05-05T09:53:45.054Z,85.71
2023-05-05T09:57:40.729Z,86.30
2023-05-05T10:01:39.781Z,85.26
2023-05-05T10:05:26.999Z,86.69
2023-05-05T10:09:16.786Z,85.18
2023-05-05T10:12:42.126Z,84.92
2023-05-05T10:16:13.414Z,83.93
2023-05-05T10:28:15.316Z,83.22
2023-05-05T10:31:58.676Z,87.91
2023-05-05T10:35:48.430Z,83.62
2023-05-05T10:39:34.726Z,84.30
2023-05-05T10:42:56.412Z,85.92
2023-05-05T10:46:40.342Z,86.02
2023-05-05T11:00:13.446Z,87.60
2023-05-05T11:03:46.268Z,84.03
2023-05-05T11:07:54.716Z,84.06
2023-05-05T11:15:45.367Z,84.81
2023-05-05T11:19:49.518Z,90.01
2023-05-05T11:23:31.335Z,83.66
2023-05-05T11:26:52.826Z,86.24
2023-05-05T11:30:36.027Z,84.18
2023-05-05T11:38:47.042Z,84.70
2023-05-05T11:42:56.459Z,85.01
2023-05-05T11:47:16.988Z,85.83
2023-05-05T11:54:05.617Z,87.67
2023-05-05T11:57:24.505Z,89.30
2023-05-05T12:00:48.918Z,91.06
2023-05-05T12:03:58.397Z,100.00
2023-05-05T12:08:18.506Z,100.00
2023-05-05T12:12:04.943Z,100.00
2023-05-05T12:15:41.905Z,100.00
2023-05-05T12:19:19.085Z,100.00
2023-05-05T12:22:35.747Z,100.00
2023-05-05T12:25:57.484Z,100.00
2023-05-05T12:29:07.046Z,100.00
2023-05-05T12:32:37.317Z,100.00
2023-05-05T12:35:51.266Z,100.00
2023-05-05T12:38:54.402Z,100.00
2023-05-05T12:46:13.836Z,100.00
2023-05-05T12:49:29.277Z,100.00
2023-05-05T12:52:57.677Z,100.00
2023-05-05T12:56:37.701Z,100.00
2023-05-05T12:59:42.198Z,100.00
2023-05-05T13:03:31.409Z,100.00
2023-05-05T13:11:15.834Z,100.00
2023-05-05T13:21:40.538Z,100.00
2023-05-05T13:24:54.521Z,100.00
2023-05-05T13:28:18.369Z,100.00
2023-05-05T13:35:34.037Z,100.00
2023-05-05T13:38:56.017Z,100.00
2023-05-05T13:45:49.508Z,100.00
2023-05-05T13:49:09.038Z,100.00
2023-05-05T13:55:50.905Z,100.00
2023-05-05T13:59:41.462Z,100.00
2023-05-05T14:02:50.536Z,100.00
2023-05-05T14:06:10.318Z,100.00
2023-05-05T14:13:31.048Z,100.00
2023-05-05T14:25:25.975Z,100.00
2023-05-05T14:34:22.942Z,100.00
2023-05-05T14:38:31.708Z,100.00
2023-05-05T14:42:02.522Z,100.00
2023-05-05T14:48:56.462Z,100.00
2023-05-05T14:56:34.946Z,100.00
2023-05-05T15:04:58.523Z,100.00
2023-05-05T15:11:49.891Z,100.00
2023-05-05T15:15:19.953Z,100.00
2023-05-05T15:26:25.563Z,100.00
2023-05-05T15:30:01.172Z,100.00
2023-05-05T15:44:54.289Z,100.00
2023-05-05T15:59:29.790Z,100.00
2023-05-05T16:03:32.557Z,100.00
2023-05-05T16:06:53.886Z,100.00
2023-05-05T16:15:43.888Z,100.00
2023-05-05T16:19:14.614Z,100.00
2023-05-05T16:22:20.937Z,100.00
2023-05-05T16:29:08.960Z,100.00
2023-05-05T16:32:48.296Z,100.00
2023-05-05T16:36:03.185Z,100.00
2023-05-05T16:39:19.436Z,100.00
2023-05-05T16:42:48.226Z,100.00
2023-05-05T16:46:38.462Z,100.00
2023-05-05T16:50:31.953Z,100.00
2023-05-05T16:54:04.842Z,100.00
2023-05-05T16:57:41.132Z,100.00
2023-05-05T17:00:51.673Z,100.00
2023-05-05T17:04:07.933Z,100.00
2023-05-05T17:07:52.170Z,100.00
2023-05-05T17:11:04.328Z,100.00
2023-05-05T17:14:15.083Z,100.00
2023-05-05T17:17:33.196Z,100.00
2023-05-05T17:20:45.938Z,100.00
2023-05-05T17:23:51.621Z,100.00
2023-05-05T17:32:38.822Z,100.00
2023-05-05T17:35:55.236Z,100.00
2023-05-05T17:39:32.100Z,100.00
2023-05-05T17:42:51.843Z,100.00
2023-05-05T17:46:29.688Z,100.00
2023-05-05T17:49:32.834Z,100.00
2023-05-05T17:52:50.929Z,100.00
2023-05-05T18:04:56.737Z,100.00
2023-05-05T18:12:08.785Z,100.00
2023-05-05T18:16:32.515Z,100.00
2023-05-05T18:20:28.145Z,100.00
2023-05-05T18:24:20.644Z,100.00
2023-05-05T18:28:47.968Z,100.00
2023-05-05T18:36:09.375Z,100.00
2023-05-05T18:40:01.638Z,100.00
2023-05-05T18:43:08.235Z,100.00
2023-05-05T18:46:54.227Z,100.00
2023-05-05T18:49:58.804Z,100.00
2023-05-05T18:53:40.505Z,100.00
2023-05-05T18:57:15.285Z,100.00
2023-05-05T19:00:59.754Z,100.00
2023-05-05T19:04:30.064Z,100.00
2023-05-05T19:12:22.988Z,100.00
2023-05-05T19:16:33.070Z,100.00
2023-05-05T19:20:13.130Z,100.00
2023-05-05T19:23:58.720Z,100.00
2023-05-05T19:33:01.947Z,100.00
2023-05-05T19:36:08.278Z,100.00
2023-05-05T19:39:15.709Z,100.00
2023-05-05T19:44:05.333Z,100.00
2023-05-05T19:48:14.400Z,100.00
2023-05-05T19:56:33.035Z,100.00
2023-05-05T20:07:00.667Z,100.00
2023-05-05T20:10:24.116Z,100.00
2023-05-05T20:13:38.158Z,100.00
2023-05-05T20:17:20.160Z,100.00
2023-05-05T20:28:50.905Z,100.00
2023-05-05T20:32:20.844Z,100.00
2023-05-05T20:36:33.533Z,100.00
2023-05-05T20:40:28.228Z,100.00
2023-05-05T20:48:25.584Z,100.00
2023-05-05T20:51:49.195Z,100.00
2023-05-05T20:55:26.092Z,100.00
2023-05-05T20:58:59.758Z,100.00
2023-05-05T21:02:20.723Z,100.00
2023-05-05T21:05:43.354Z,100.00
2023-05-05T21:09:37.956Z,100.00
2023-05-05T21:13:05.951Z,100.00
2023-05-05T21:17:14.064Z,100.00
2023-05-05T21:21:32.579Z,100.00
2023-05-05T21:24:55.041Z,100.00
2023-05-05T21:28:17.003Z,100.00
2023-05-05T21:35:24.617Z,100.00
2023-05-05T21:38:50.908Z,100.00
2023-05-05T21:42:16.969Z,100.00
2023-05-05T21:46:05.623Z,100.00
2023-05-05T21:49:28.161Z,100.00
2023-05-05T21:52:35.934Z,100.00
2023-05-05T21:56:24.470Z,100.00
2023-05-05T22:03:29.340Z,100.00
2023-05-05T22:06:46.585Z,100.00
2023-05-05T22:10:00.252Z,100.00
2023-05-05T22:13:58.154Z,100.00
2023-05-05T22:17:04.183Z,100.00
2023-05-05T22:20:14.615Z,100.00
2023-05-05T22:31:47.796Z,100.00
2023-05-05T22:35:12.502Z,100.00
2023-05-05T22:38:41.228Z,100.00
2023-05-05T22:42:18.246Z,100.00
2023-05-05T22:45:27.269Z,100.00
2023-05-05T22:49:00.319Z,100.00
2023-05-05T22:52:37.046Z,100.00
2023-05-05T22:59:49.495Z,100.00
2023-05-05T23:02:55.491Z,100.00
2023-05-05T23:06:01.585Z,100.00
2023-05-05T23:09:33.870Z,100.00
2023-05-05T23:17:03.815Z,100.00
2023-05-05T23:20:36.061Z,100.00
2023-05-05T23:24:43.703Z,100.00
2023-05-05T23:27:53.588Z,100.00
2023-05-05T23:30:59.596Z,100.00
2023-05-05T23:34:26.596Z,100.00
2023-05-05T23:37:38.368Z,100.00
2023-05-05T23:40:44.376Z,100.00
2023-05-05T23:44:19.752Z,100.00
2023-05-05T23:48:10.869Z,100.00
2023-05-05T23:51:23.700Z,100.00
2023-05-05T23:54:56.396Z,100.00
2023-05-05T23:58:08.698Z,100.00
